Hlavní strana
METAR-TAF:

METAR-TAF

Letiště :

Caracas, Venezuela

zeměpisná šířka: 10-36N, zeměpisná délka: 066-59W, výška: 43 m

Aktuální stav počasí

Zpráva byla vytvořena před 51 minutami, v 11:00 UTC
Východojihovýchodní vítr 2 kt
Teplota 25°C
Vlhkost vzduchu 89%
Tlak 1012 hPa
Polojasno ve výšce 1600 ft

METAR: SVMI 121100Z 11002KT SCT016 25/23 Q1012

Čas: 07:51 (11:51 UTC)

Předpověď počasí

Zpráva byla vytvořena před 1 hodinou a 51 minutami, v 10:00 UTC
Předpověď platná od 12 v 12 UTC do 13 v 12 UTC
Východní vítr 10 kt
Viditelnost 10 km a více
Polojasno ve výšce 1600 ft
Změna
od 12 v 12 UTC do 12 v 16 UTC
Východní vítr 12 kt
Viditelnost 10 km a více
Polojasno ve výšce 1600 ft

TAF: SVMI 121000Z 1212/1312 09010KT 9999 SCT016 TX34/18Z TN26/08Z BECMG 1212/1216 09012KT 9999 SCT016

Stav a předpovědi počasí z více než 4 000 letišť (zprávy METAR a TAF).

Červené a žluté tečky na mapě představují dostupné meteorologické stanice.

Když kurzor umístíte na tečku, zobrazí se název stanice.

Pak kliknutím zobrazíte stav a předpověď počasí.

Chcete-li změnit mapu, kliknutím na zelené tlačítko se znaménkem +mapu přiblížíte, kliknutím na zelené tlačítko se znaménkem – mapu oddálíte a kliknutím na zelené šipky přejdete na sousední mapy.


METAR-TAF: